Time;durP1;ratioP1;P1;durP2;ratioP2;P2;SDS_P1;SDS_P2;PMS_P1;PMS_P2;Temp;Humidity;BMP_temperature;BMP_pressure;BME280_temperature;BME280_humidity;BME280_pressure;Samples;Min_cycle;Max_cycle;Signal;HPM_P1;HPM_P2
2021/08/15 00:01:13;;;;;;;11.15;3.78;;;;;;;25.77;57.85;100768.94;5113596;27;20039;-71
2021/08/15 00:03:40;;;;;;;13.70;4.00;;;;;;;25.77;57.81;100776.19;5113097;28;20044;-72
2021/08/15 00:06:08;;;;;;;15.93;4.18;;;;;;;25.79;57.82;100764.34;5115475;27;20043;-72
2021/08/15 00:08:37;;;;;;;12.60;4.47;;;;;;;25.82;57.75;100762.44;5115199;27;20035;-71
2021/08/15 00:11:05;;;;;;;15.05;3.92;;;;;;;25.79;57.62;100769.75;5114827;27;20047;-72
2021/08/15 00:13:33;;;;;;;16.92;4.22;;;;;;;25.72;57.99;100767.41;5114854;27;20115;-72
2021/08/15 00:16:01;;;;;;;16.92;3.80;;;;;;;25.69;58.17;100762.13;5114960;28;20043;-72
2021/08/15 00:18:28;;;;;;;15.98;3.67;;;;;;;25.70;57.86;100770.19;5114722;28;20050;-72
2021/08/15 00:20:56;;;;;;;14.18;3.50;;;;;;;25.68;57.89;100761.25;5114760;27;20412;-71
2021/08/15 00:23:23;;;;;;;10.95;3.35;;;;;;;25.72;57.96;100762.00;5114763;28;20398;-71
2021/08/15 00:25:52;;;;;;;13.48;4.15;;;;;;;25.73;57.83;100756.50;5113085;27;20042;-72
2021/08/15 00:28:20;;;;;;;10.82;3.63;;;;;;;25.70;57.65;100758.47;5114277;27;20222;-72
2021/08/15 00:30:47;;;;;;;15.27;3.75;;;;;;;25.67;57.96;100758.63;5113666;27;20036;-71
2021/08/15 00:33:15;;;;;;;13.68;4.10;;;;;;;25.66;58.06;100762.28;5114745;28;20437;-71
2021/08/15 00:36:02;;;;;;;14.13;4.82;;;;;;;25.66;57.70;100762.28;5113250;27;20040;-72
2021/08/15 00:38:30;;;;;;;15.82;4.30;;;;;;;25.61;58.01;100757.06;5114384;28;20040;-72
2021/08/15 00:40:58;;;;;;;14.85;3.70;;;;;;;25.54;58.15;100752.88;5114257;27;20039;-72
2021/08/15 00:43:28;;;;;;;19.52;4.50;;;;;;;25.48;58.13;100763.09;5114338;27;20055;-72
2021/08/15 00:45:56;;;;;;;13.27;4.05;;;;;;;25.48;58.11;100750.44;5112828;28;20380;-72
2021/08/15 00:48:23;;;;;;;14.23;4.43;;;;;;;25.42;58.40;100757.03;5114127;27;20475;-72
2021/08/15 00:50:50;;;;;;;17.40;4.18;;;;;;;25.35;58.29;100754.66;5113819;28;20046;-72
2021/08/15 00:53:18;;;;;;;14.68;4.10;;;;;;;25.31;58.60;100753.94;5111753;28;20044;-72
2021/08/15 00:55:45;;;;;;;11.70;3.70;;;;;;;25.36;58.43;100749.19;5114182;27;20039;-72
2021/08/15 00:58:14;;;;;;;11.23;3.63;;;;;;;25.42;58.24;100751.63;5114740;27;20498;-71
2021/08/15 01:00:45;;;;;;;11.90;3.85;;;;;;;25.40;57.75;100753.50;5113867;28;20387;-72
2021/08/15 01:03:12;;;;;;;9.20;3.20;;;;;;;25.41;57.88;100757.97;5113868;28;20048;-70
2021/08/15 01:05:39;;;;;;;15.60;3.80;;;;;;;25.36;57.96;100749.19;5111997;28;20032;-72
2021/08/15 01:08:07;;;;;;;11.68;3.50;;;;;;;25.36;57.63;100751.91;5113958;28;20051;-71
2021/08/15 01:10:35;;;;;;;13.32;3.83;;;;;;;25.30;57.94;100759.41;5113935;28;20047;-71
2021/08/15 01:13:03;;;;;;;11.15;3.03;;;;;;;25.22;58.06;100751.63;5113383;28;20160;-72
2021/08/15 01:15:32;;;;;;;9.65;4.00;;;;;;;25.15;58.15;100750.16;5114045;27;20036;-71
2021/08/15 01:18:00;;;;;;;13.15;4.10;;;;;;;25.09;58.23;100749.56;5113996;28;20031;-71
2021/08/15 01:20:47;;;;;;;11.35;4.10;;;;;;;25.10;58.20;100746.78;5106771;28;20051;-72
2021/08/15 01:23:15;;;;;;;18.70;3.90;;;;;;;25.12;58.15;100749.44;5113575;28;20047;-70
2021/08/15 01:25:42;;;;;;;13.85;4.05;;;;;;;25.13;58.09;100745.78;5113673;28;20047;-68
2021/08/15 01:28:17;;;;;;;16.60;4.13;;;;;;;25.23;57.72;100749.81;5114053;28;20046;-71
2021/08/15 01:30:44;;;;;;;10.35;3.70;;;;;;;25.11;58.03;100750.38;5112784;27;20048;-70
2021/08/15 01:33:12;;;;;;;13.00;3.72;;;;;;;25.05;58.28;100747.94;5114170;27;20040;-71
2021/08/15 01:35:40;;;;;;;12.73;3.72;;;;;;;25.06;58.45;100749.69;5113719;27;20050;-71
2021/08/15 01:38:07;;;;;;;10.75;3.97;;;;;;;25.03;58.32;100756.09;5113510;27;20043;-72
2021/08/15 01:40:35;;;;;;;15.73;4.28;;;;;;;25.01;58.29;100753.47;5113069;28;20395;-72
2021/08/15 01:43:03;;;;;;;11.77;4.03;;;;;;;24.97;58.69;100748.28;5113166;28;20052;-71
2021/08/15 01:45:32;;;;;;;13.05;3.25;;;;;;;24.99;58.73;100758.09;5113120;28;20042;-73
2021/08/15 01:47:59;;;;;;;12.35;3.70;;;;;;;25.02;58.42;100749.81;5113149;28;20051;-71
2021/08/15 01:50:26;;;;;;;10.07;3.35;;;;;;;25.07;58.63;100757.75;5113015;28;20483;-72
2021/08/15 01:52:54;;;;;;;11.77;3.97;;;;;;;25.03;58.44;100756.09;5113048;28;20387;-71
2021/08/15 01:55:22;;;;;;;13.55;4.00;;;;;;;25.00;58.77;100758.97;5112621;27;20055;-72
2021/08/15 01:57:49;;;;;;;15.02;4.15;;;;;;;24.99;58.75;100760.78;5111619;28;20035;-72
2021/08/15 02:00:17;;;;;;;12.27;3.63;;;;;;;25.05;58.68;100754.22;5113122;28;20046;-73
2021/08/15 02:02:46;;;;;;;12.07;3.30;;;;;;;25.05;58.49;100761.44;5112213;28;20035;-72
2021/08/15 02:05:18;;;;;;;9.63;3.30;;;;;;;25.03;58.46;100761.50;5112441;28;20040;-71
2021/08/15 02:07:46;;;;;;;13.93;4.40;;;;;;;25.03;58.83;100758.81;5112732;28;20028;-72
2021/08/15 02:10:15;;;;;;;10.75;4.10;;;;;;;25.01;58.86;100758.00;5112186;27;20101;-72
2021/08/15 02:12:43;;;;;;;10.07;3.83;;;;;;;25.00;59.05;100759.84;5111860;28;20040;-71
2021/08/15 02:15:11;;;;;;;17.20;3.47;;;;;;;24.92;59.21;100762.00;5112848;28;20050;-72
2021/08/15 02:17:38;;;;;;;19.02;4.15;;;;;;;24.86;59.59;100759.53;5112669;28;20051;-73
2021/08/15 02:20:09;;;;;;;12.25;3.85;;;;;;;24.94;59.53;100761.94;5112237;28;20048;-72
2021/08/15 02:22:36;;;;;;;10.25;4.30;;;;;;;24.91;59.56;100746.72;5112351;28;20072;-71
2021/08/15 02:25:05;;;;;;;17.95;3.53;;;;;;;24.88;59.75;100752.22;5112372;28;20149;-71
2021/08/15 02:27:32;;;;;;;17.05;3.95;;;;;;;24.87;59.71;100753.19;5110809;28;20063;-71
2021/08/15 02:30:00;;;;;;;12.43;3.67;;;;;;;24.87;59.50;100752.31;5112332;27;20031;-71
2021/08/15 02:32:27;;;;;;;18.10;3.88;;;;;;;24.85;59.79;100751.47;5110571;28;20036;-71
2021/08/15 02:34:54;;;;;;;13.32;4.03;;;;;;;24.84;59.61;100757.81;5112116;28;20043;-72
2021/08/15 02:37:24;;;;;;;13.90;3.88;;;;;;;24.93;59.84;100754.78;5111978;27;20047;-71
2021/08/15 02:39:52;;;;;;;12.10;4.45;;;;;;;24.92;59.59;100753.00;5112245;28;20552;-71
2021/08/15 02:42:20;;;;;;;12.38;3.83;;;;;;;24.92;59.96;100761.13;5107034;28;20112;-71
2021/08/15 02:44:47;;;;;;;11.80;3.53;;;;;;;24.90;59.84;100758.47;5112385;28;20028;-70
2021/08/15 02:47:15;;;;;;;11.80;4.18;;;;;;;24.90;59.87;100754.88;5112270;28;20040;-70
2021/08/15 02:49:42;;;;;;;13.80;3.95;;;;;;;24.92;59.93;100755.72;5112774;28;20043;-71
2021/08/15 02:52:09;;;;;;;16.88;4.00;;;;;;;24.90;60.36;100757.59;5112286;28;20035;-71
2021/08/15 02:54:39;;;;;;;14.30;4.28;;;;;;;24.88;60.55;100759.44;5111946;28;20051;-71
2021/08/15 02:57:06;;;;;;;13.77;4.63;;;;;;;24.85;60.83;100762.28;5111905;28;20036;-71
2021/08/15 02:59:50;;;;;;;12.93;4.47;;;;;;;24.92;60.56;100763.81;5111686;28;20050;-71
2021/08/15 03:02:20;;;;;;;15.95;4.68;;;;;;;24.95;60.24;100756.44;5111587;28;20051;-71
2021/08/15 03:04:48;;;;;;;10.43;3.90;;;;;;;24.92;60.45;100756.59;5111870;28;20047;-71
2021/08/15 03:07:16;;;;;;;11.65;4.30;;;;;;;24.91;60.91;100768.34;5112060;28;20036;-71
2021/08/15 03:10:07;;;;;;;12.10;4.35;;;;;;;24.92;60.74;100769.22;5109292;28;20100;-71
2021/08/15 03:12:34;;;;;;;10.30;3.80;;;;;;;24.93;60.71;100771.84;5112151;28;20039;-72
2021/08/15 03:15:02;;;;;;;10.40;4.13;;;;;;;24.95;60.82;100777.16;5111651;28;20051;-72
2021/08/15 03:17:29;;;;;;;15.85;4.30;;;;;;;24.97;60.88;100778.00;5111934;28;20066;-72
2021/08/15 03:19:57;;;;;;;20.17;5.40;;;;;;;24.95;60.97;100780.75;5111462;28;20047;-72
2021/08/15 03:22:24;;;;;;;14.38;4.35;;;;;;;24.94;61.22;100778.16;5111554;28;20402;-71
2021/08/15 03:24:51;;;;;;;16.35;5.07;;;;;;;24.89;61.58;100769.31;5111924;28;20516;-71
2021/08/15 03:27:20;;;;;;;15.77;4.25;;;;;;;24.91;61.75;100778.25;5112018;28;20036;-71
2021/08/15 03:30:09;;;;;;;14.85;4.32;;;;;;;24.93;61.67;100781.78;5093361;28;20039;-72
2021/08/15 03:32:36;;;;;;;13.18;4.57;;;;;;;24.98;61.59;100774.34;5111611;28;20040;-71
2021/08/15 03:35:04;;;;;;;12.48;4.55;;;;;;;25.00;61.93;100776.06;5112035;28;20055;-71
2021/08/15 03:37:31;;;;;;;17.65;4.63;;;;;;;25.02;62.22;100771.44;5115505;27;20040;-73
2021/08/15 03:39:59;;;;;;;14.13;4.70;;;;;;;25.05;62.38;100777.66;5115565;28;20395;-72
2021/08/15 03:42:27;;;;;;;14.38;4.57;;;;;;;25.08;62.34;100780.22;5114127;28;20047;-71
2021/08/15 03:44:59;;;;;;;16.00;4.85;;;;;;;25.10;62.48;100779.22;5115340;27;20042;-71
2021/08/15 03:47:31;;;;;;;17.52;4.30;;;;;;;25.14;62.73;100785.38;5115531;27;20047;-72
2021/08/15 03:49:59;;;;;;;15.68;4.20;;;;;;;25.17;62.73;100796.91;5115740;27;20027;-72
2021/08/15 03:52:26;;;;;;;15.13;4.18;;;;;;;25.18;62.79;100787.00;5115528;27;20081;-72
2021/08/15 03:54:54;;;;;;;13.15;4.90;;;;;;;25.22;62.46;100789.47;5115378;27;20077;-72
2021/08/15 03:57:21;;;;;;;20.02;4.40;;;;;;;25.27;62.80;100784.72;5115188;28;20096;-72
2021/08/15 03:59:50;;;;;;;13.60;4.07;;;;;;;25.37;62.72;100788.78;5115558;28;20039;-72
2021/08/15 04:02:18;;;;;;;18.05;5.07;;;;;;;25.46;62.41;100789.34;5115057;28;20081;-71
2021/08/15 04:04:45;;;;;;;18.20;5.22;;;;;;;25.56;62.52;100786.13;5115098;28;20039;-70
2021/08/15 04:07:12;;;;;;;12.95;3.58;;;;;;;25.68;62.41;100782.00;5115689;28;20044;-72
2021/08/15 04:09:40;;;;;;;8.02;3.90;;;;;;;25.78;62.27;100792.34;5115384;28;20047;-72
2021/08/15 04:12:07;;;;;;;17.02;4.25;;;;;;;25.92;61.99;100782.72;5114455;27;20047;-71
2021/08/15 04:14:35;;;;;;;18.35;4.40;;;;;;;26.02;61.40;100794.84;5115060;28;20080;-72
2021/08/15 04:17:04;;;;;;;12.52;4.05;;;;;;;26.11;61.50;100791.69;5115397;27;20052;-72
2021/08/15 04:19:31;;;;;;;16.25;4.47;;;;;;;26.20;61.13;100797.53;5113089;27;20364;-71
2021/08/15 04:22:01;;;;;;;13.50;5.53;;;;;;;26.33;60.92;100794.25;5114545;27;20491;-72
2021/08/15 04:24:28;;;;;;;13.65;4.60;;;;;;;26.47;60.90;100789.91;5114842;28;20043;-71
2021/08/15 04:26:56;;;;;;;13.15;4.05;;;;;;;26.63;60.63;100797.28;5114418;28;20047;-72
2021/08/15 04:29:23;;;;;;;11.18;3.95;;;;;;;26.78;60.04;100791.09;5114504;27;20040;-71
2021/08/15 04:31:50;;;;;;;12.38;4.00;;;;;;;26.84;59.27;100786.25;5113418;28;20537;-71
2021/08/15 04:34:20;;;;;;;12.38;3.35;;;;;;;27.01;59.13;100795.34;5114312;28;20050;-70
2021/08/15 04:36:47;;;;;;;15.52;4.13;;;;;;;27.15;58.91;100798.22;5114436;27;20047;-71
2021/08/15 04:39:15;;;;;;;13.98;3.75;;;;;;;27.23;58.70;100793.28;5114372;27;20475;-71
2021/08/15 04:41:43;;;;;;;13.70;3.67;;;;;;;27.35;58.00;100800.75;5115188;27;20493;-72
2021/08/15 04:44:11;;;;;;;14.60;3.92;;;;;;;27.54;57.56;100785.28;5113802;28;20386;-72
2021/08/15 04:46:38;;;;;;;8.02;3.15;;;;;;;27.71;57.29;100804.22;5113556;27;20916;-72
2021/08/15 04:49:06;;;;;;;16.33;3.55;;;;;;;27.90;56.86;100803.22;5114141;27;20036;-72
2021/08/15 04:51:35;;;;;;;11.38;3.28;;;;;;;28.09;56.36;100804.81;5114286;28;20060;-72
2021/08/15 04:54:26;;;;;;;10.93;3.40;;;;;;;28.22;55.61;100804.16;5110544;27;20048;-72
2021/08/15 04:56:53;;;;;;;13.60;3.92;;;;;;;28.30;55.05;100799.16;5114420;27;20213;-71
2021/08/15 04:59:21;;;;;;;11.27;3.40;;;;;;;28.46;54.59;100800.91;5114282;28;20137;-72
2021/08/15 05:01:48;;;;;;;11.15;3.35;;;;;;;28.58;53.83;100798.44;5113761;28;20051;-73
2021/08/15 05:04:16;;;;;;;15.77;3.88;;;;;;;28.70;53.39;100795.00;5113975;28;20042;-71
2021/08/15 05:06:45;;;;;;;14.77;3.17;;;;;;;28.82;52.88;100797.00;5114246;28;20490;-72
2021/08/15 05:09:13;;;;;;;12.13;3.20;;;;;;;28.94;52.41;100796.31;5114287;27;20395;-73
2021/08/15 05:11:41;;;;;;;17.75;3.35;;;;;;;29.06;52.18;100797.41;5112352;28;20031;-72
2021/08/15 05:14:08;;;;;;;10.25;3.42;;;;;;;29.29;51.83;100789.59;5112802;28;20054;-73
2021/08/15 05:16:36;;;;;;;10.30;3.75;;;;;;;29.50;51.16;100798.31;5113603;28;20040;-72
2021/08/15 05:19:05;;;;;;;13.38;3.60;;;;;;;29.70;50.48;100799.75;5113565;28;20048;-73
2021/08/15 05:21:32;;;;;;;11.45;2.92;;;;;;;29.85;49.38;100803.38;5113395;28;20046;-72
2021/08/15 05:24:01;;;;;;;9.48;3.10;;;;;;;29.99;48.97;100806.13;5113316;27;20047;-72
2021/08/15 05:26:29;;;;;;;16.98;3.28;;;;;;;30.09;49.19;100807.25;5113618;27;20032;-72
2021/08/15 05:28:56;;;;;;;10.63;4.18;;;;;;;30.28;49.18;100802.38;5113412;28;20032;-72
2021/08/15 05:31:23;;;;;;;12.13;3.35;;;;;;;30.51;49.03;100814.50;5112647;28;20048;-72
2021/08/15 05:33:59;;;;;;;13.80;2.97;;;;;;;30.75;48.72;100812.84;5112891;27;20368;-72
2021/08/15 05:36:27;;;;;;;10.50;3.42;;;;;;;30.95;48.57;100810.63;5113691;27;20047;-72
2021/08/15 05:38:55;;;;;;;11.52;2.90;;;;;;;31.11;47.95;100801.34;5113356;28;20028;-72
2021/08/15 05:41:23;;;;;;;12.18;3.28;;;;;;;31.27;47.50;100793.81;5113294;28;20032;-72
2021/08/15 05:43:51;;;;;;;10.32;3.20;;;;;;;31.31;47.03;100810.84;5113474;27;20039;-73
2021/08/15 05:46:18;;;;;;;13.40;3.80;;;;;;;31.45;47.19;100807.13;5113304;28;20043;-73
2021/08/15 05:48:45;;;;;;;13.10;3.17;;;;;;;31.61;46.57;100807.84;5112958;28;20080;-71
2021/08/15 05:51:13;;;;;;;11.05;3.15;;;;;;;31.60;46.43;100809.69;5113293;28;20036;-72
2021/08/15 05:53:40;;;;;;;9.55;3.28;;;;;;;31.62;45.95;100813.19;5113016;28;20361;-73
2021/08/15 05:56:08;;;;;;;8.20;3.15;;;;;;;31.37;46.38;100815.00;5113112;27;20506;-73
2021/08/15 05:58:38;;;;;;;10.73;3.22;;;;;;;31.69;45.59;100801.84;5112127;27;20040;-71
2021/08/15 06:01:05;;;;;;;11.32;3.42;;;;;;;31.85;44.96;100824.31;5112736;28;20043;-72
2021/08/15 06:03:33;;;;;;;12.90;3.40;;;;;;;32.11;44.36;100831.50;5110244;28;20502;-72
2021/08/15 06:06:00;;;;;;;12.88;3.15;;;;;;;32.37;43.78;100825.00;5113020;28;20040;-72
2021/08/15 06:08:27;;;;;;;13.65;3.47;;;;;;;32.42;43.17;100814.63;5112651;28;20051;-73
2021/08/15 06:10:55;;;;;;;9.65;3.35;;;;;;;32.50;42.74;100819.50;5112694;27;20036;-73
2021/08/15 06:13:22;;;;;;;12.30;3.50;;;;;;;32.67;42.72;100832.84;5111583;28;20038;-73
2021/08/15 06:15:52;;;;;;;11.25;3.05;;;;;;;32.87;42.46;100839.53;5112897;28;20043;-73
2021/08/15 06:18:39;;;;;;;11.18;3.40;;;;;;;33.15;42.54;100838.25;5110584;28;20043;-72
2021/08/15 06:21:07;;;;;;;14.30;3.22;;;;;;;33.23;41.70;100836.72;5112712;28;20036;-73
2021/08/15 06:23:34;;;;;;;11.57;3.58;;;;;;;33.21;41.26;100826.91;5112416;27;20036;-73
2021/08/15 06:26:01;;;;;;;10.55;3.00;;;;;;;33.20;40.97;100828.75;5112152;28;20036;-72
2021/08/15 06:28:29;;;;;;;10.52;3.03;;;;;;;33.25;40.80;100847.53;5111283;28;20070;-72
2021/08/15 06:30:57;;;;;;;12.90;3.63;;;;;;;33.51;40.83;100848.25;5112517;27;20062;-73
2021/08/15 06:33:25;;;;;;;12.68;3.10;;;;;;;33.68;40.75;100847.75;5112311;28;20040;-72
2021/08/15 06:35:53;;;;;;;15.77;3.15;;;;;;;33.76;39.84;100842.59;5112311;27;20049;-72
2021/08/15 06:38:20;;;;;;;11.15;3.63;;;;;;;33.77;39.53;100849.81;5112338;28;20043;-73
2021/08/15 06:40:47;;;;;;;8.82;3.55;;;;;;;33.85;39.87;100857.44;5112232;28;20055;-69
2021/08/15 06:43:35;;;;;;;10.13;3.28;;;;;;;33.69;39.84;100849.50;5109682;28;20067;-70
2021/08/15 06:46:04;;;;;;;10.98;3.53;;;;;;;33.82;39.31;100843.97;5112191;28;20088;-71
2021/08/15 06:48:31;;;;;;;10.15;3.20;;;;;;;33.76;39.52;100855.41;5112177;27;20040;-71
2021/08/15 06:50:59;;;;;;;12.23;3.58;;;;;;;33.79;39.86;100864.28;5111997;28;20042;-71
2021/08/15 06:53:27;;;;;;;9.38;2.90;;;;;;;33.99;39.46;100852.59;5112215;28;20047;-72
2021/08/15 06:55:54;;;;;;;10.70;3.25;;;;;;;34.22;39.33;100850.72;5111971;28;20035;-71
2021/08/15 06:58:22;;;;;;;13.10;3.17;;;;;;;34.35;38.93;100853.34;5107506;28;20039;-73
2021/08/15 07:00:49;;;;;;;11.52;3.17;;;;;;;34.42;38.72;100861.94;5111861;28;20048;-72
2021/08/15 07:03:18;;;;;;;11.63;3.33;;;;;;;34.47;38.74;100862.41;5112261;28;20089;-70
2021/08/15 07:05:52;;;;;;;14.02;4.10;;;;;;;34.49;38.81;100849.47;5111763;28;20051;-71
2021/08/15 07:08:19;;;;;;;12.60;3.42;;;;;;;34.50;38.42;100857.56;5111066;28;20044;-73
2021/08/15 07:10:47;;;;;;;11.48;3.63;;;;;;;34.45;38.39;100859.81;5113878;27;20039;-70
2021/08/15 07:13:19;;;;;;;11.98;3.80;;;;;;;34.50;38.60;100868.53;5119485;27;20039;-73
2021/08/15 07:15:47;;;;;;;15.82;3.28;;;;;;;34.58;38.51;100868.78;5116910;27;20542;-71
2021/08/15 07:18:14;;;;;;;9.70;3.20;;;;;;;34.68;37.95;100877.09;5118160;27;20039;-71
2021/08/15 07:20:44;;;;;;;14.35;3.70;;;;;;;34.74;37.59;100877.50;5117430;27;20040;-72
2021/08/15 07:23:11;;;;;;;11.02;3.28;;;;;;;34.86;37.52;100885.69;5118560;27;20058;-72
2021/08/15 07:25:38;;;;;;;11.00;3.90;;;;;;;34.94;37.45;100875.81;5118376;27;20044;-72
2021/08/15 07:28:26;;;;;;;8.02;3.30;;;;;;;35.00;37.29;100878.03;5114518;27;20047;-71
2021/08/15 07:30:54;;;;;;;8.40;3.25;;;;;;;34.99;37.20;100880.91;5118663;27;20051;-71
2021/08/15 07:33:22;;;;;;;11.95;4.05;;;;;;;34.97;37.19;100871.94;5118562;27;20050;-71
2021/08/15 07:35:51;;;;;;;12.85;3.42;;;;;;;35.02;37.40;100876.03;5117033;27;20036;-70
2021/08/15 07:38:18;;;;;;;11.05;3.65;;;;;;;35.13;37.16;100866.88;5118296;27;20036;-71
2021/08/15 07:40:46;;;;;;;11.38;3.80;;;;;;;35.17;36.93;100887.59;5118339;27;20028;-70
2021/08/15 07:43:13;;;;;;;10.95;3.20;;;;;;;35.06;36.74;100879.38;5118699;27;20046;-71
2021/08/15 07:45:53;;;;;;;10.15;3.10;;;;;;;34.93;36.73;100881.41;5117516;27;20047;-71
2021/08/15 07:48:23;;;;;;;10.15;3.63;;;;;;;35.12;36.97;100876.97;5117599;27;20032;-72
2021/08/15 07:50:52;;;;;;;12.55;3.03;;;;;;;35.15;37.12;100871.25;5113695;27;20505;-70
2021/08/15 07:53:21;;;;;;;11.63;3.00;;;;;;;35.25;36.79;100881.50;5118133;27;20102;-70
2021/08/15 07:55:50;;;;;;;9.95;3.78;;;;;;;35.36;36.97;100885.03;5117935;27;20043;-70
2021/08/15 07:58:17;;;;;;;11.20;3.55;;;;;;;35.58;36.72;100879.41;5118120;27;20063;-71
2021/08/15 08:00:45;;;;;;;12.75;3.60;;;;;;;35.70;36.17;100876.66;5118799;27;20039;-71
2021/08/15 08:03:14;;;;;;;12.00;4.18;;;;;;;35.67;35.93;100877.75;5117915;27;20053;-71
2021/08/15 08:05:41;;;;;;;11.43;3.50;;;;;;;35.65;35.48;100888.00;5115694;27;20051;-70
2021/08/15 08:08:11;;;;;;;13.38;3.25;;;;;;;35.58;35.48;100886.78;5117847;27;20046;-71
2021/08/15 08:10:39;;;;;;;14.07;3.55;;;;;;;35.63;35.84;100894.66;5118132;27;20510;-71
2021/08/15 08:13:08;;;;;;;9.13;3.28;;;;;;;35.84;35.27;100879.91;5118004;27;20411;-71
2021/08/15 08:15:36;;;;;;;14.85;3.75;;;;;;;35.76;35.21;100878.84;5117715;27;20129;-72
2021/08/15 08:18:04;;;;;;;10.63;3.55;;;;;;;35.91;34.90;100894.84;5114177;27;20502;-71
2021/08/15 08:20:35;;;;;;;8.50;3.30;;;;;;;36.06;35.12;100881.63;5125792;27;20031;-72
2021/08/15 08:23:03;;;;;;;8.63;3.05;;;;;;;36.28;34.84;100886.09;5114103;28;20051;-71
2021/08/15 08:25:32;;;;;;;13.43;4.18;;;;;;;36.34;34.43;100888.31;5113936;27;20040;-72
2021/08/15 08:27:59;;;;;;;9.48;3.20;;;;;;;36.33;34.35;100884.69;5114854;28;20031;-71
2021/08/15 08:30:27;;;;;;;13.18;4.10;;;;;;;36.30;34.52;100898.69;5112792;28;20044;-72
2021/08/15 08:32:54;;;;;;;15.82;4.20;;;;;;;36.34;34.41;100891.06;5113893;27;20040;-72
2021/08/15 08:35:22;;;;;;;14.82;3.67;;;;;;;36.39;34.55;100887.88;5113643;27;20484;-71
2021/08/15 08:37:49;;;;;;;10.45;3.45;;;;;;;36.47;34.19;100888.06;5114236;27;20509;-70
2021/08/15 08:40:18;;;;;;;11.73;3.28;;;;;;;36.50;34.21;100888.63;5114176;27;20042;-70
2021/08/15 08:43:03;;;;;;;13.85;4.00;;;;;;;36.50;34.03;100880.38;5114025;27;20046;-71
2021/08/15 08:45:32;;;;;;;13.75;3.70;;;;;;;36.45;34.07;100870.81;5114380;27;20039;-71
2021/08/15 08:48:00;;;;;;;11.02;3.33;;;;;;;36.54;34.28;100879.09;5114448;28;20058;-72
2021/08/15 08:50:27;;;;;;;11.57;3.35;;;;;;;36.67;34.23;100870.63;5112996;28;20482;-72
2021/08/15 08:52:57;;;;;;;13.48;3.83;;;;;;;36.60;34.42;100880.41;5114012;28;20035;-71
2021/08/15 08:55:24;;;;;;;12.43;3.70;;;;;;;36.66;34.24;100868.88;5113696;28;20043;-73
2021/08/15 08:57:52;;;;;;;13.90;3.75;;;;;;;36.72;34.09;100871.94;5113797;27;20039;-72
2021/08/15 09:00:21;;;;;;;13.65;3.85;;;;;;;36.76;34.18;100869.75;5113496;28;20059;-73
2021/08/15 09:02:48;;;;;;;10.18;3.60;;;;;;;36.65;34.08;100864.38;5113305;27;20036;-72
2021/08/15 09:05:28;;;;;;;16.02;3.75;;;;;;;36.42;34.60;100860.97;5114001;27;20066;-69
2021/08/15 09:07:56;;;;;;;13.23;4.47;;;;;;;36.39;34.57;100855.72;5112376;27;20047;-71
2021/08/15 09:10:32;;;;;;;17.02;4.55;;;;;;;36.39;34.59;100846.59;5113859;27;20036;-70
2021/08/15 09:13:04;;;;;;;13.35;4.03;;;;;;;36.49;34.48;100867.66;5113048;28;20036;-71
2021/08/15 09:15:34;;;;;;;11.47;3.47;;;;;;;36.63;34.21;100858.09;5114135;27;20035;-72
2021/08/15 09:18:02;;;;;;;15.52;3.67;;;;;;;36.71;34.13;100866.56;5112123;28;20276;-70
2021/08/15 09:20:41;;;;;;;9.77;3.38;;;;;;;36.81;34.30;100863.84;5113358;28;20112;-71
2021/08/15 09:23:24;;;;;;;11.82;3.30;;;;;;;36.84;33.65;100861.66;5113727;28;20048;-71
2021/08/15 09:26:16;;;;;;;15.70;3.50;;;;;;;36.90;33.64;100858.34;5113494;28;20502;-71
2021/08/15 09:28:45;;;;;;;13.48;3.85;;;;;;;36.83;33.85;100861.78;5113652;28;20119;-71
2021/08/15 09:31:33;;;;;;;15.23;3.90;;;;;;;36.88;33.28;100862.25;5112414;28;20032;-72
2021/08/15 09:34:02;;;;;;;11.68;3.55;;;;;;;36.72;33.22;100849.91;5111884;28;20038;-71
2021/08/15 09:36:32;;;;;;;11.93;3.47;;;;;;;36.75;33.25;100857.03;5111534;28;20505;-70
2021/08/15 09:39:02;;;;;;;13.02;3.72;;;;;;;36.77;33.44;100852.22;5113149;28;20038;-71
2021/08/15 09:41:34;;;;;;;8.73;2.92;;;;;;;36.86;33.51;100856.88;5113240;28;20468;-72
2021/08/15 09:44:24;;;;;;;14.18;3.67;;;;;;;36.84;33.46;100847.03;5111768;28;20044;-71
2021/08/15 09:47:10;;;;;;;9.95;3.83;;;;;;;36.88;33.08;100860.38;5112961;27;20035;-71
2021/08/15 09:49:41;;;;;;;9.10;3.13;;;;;;;36.74;33.18;100858.03;5113143;27;20051;-71
2021/08/15 09:52:15;;;;;;;9.73;3.47;;;;;;;36.68;32.67;100855.84;5113164;28;20050;-72
2021/08/15 09:54:54;;;;;;;10.18;3.65;;;;;;;36.30;33.08;100851.94;5113430;27;20039;-71
2021/08/15 09:57:31;;;;;;;10.82;3.15;;;;;;;36.06;33.34;100854.13;5112596;28;20456;-71
2021/08/15 10:00:03;;;;;;;12.55;3.92;;;;;;;35.76;33.26;100848.63;5112267;27;20035;-71
2021/08/15 10:02:32;;;;;;;12.80;3.35;;;;;;;35.75;33.47;100841.38;5112076;28;20036;-72
2021/08/15 10:04:59;;;;;;;11.00;3.00;;;;;;;35.76;33.84;100849.50;5112812;28;20040;-71
2021/08/15 10:07:26;;;;;;;9.05;3.58;;;;;;;35.67;34.22;100843.91;5112702;28;20048;-71
2021/08/15 10:10:17;;;;;;;7.93;2.90;;;;;;;35.71;34.14;100845.41;5107571;28;20045;-73
2021/08/15 10:12:44;;;;;;;13.93;3.28;;;;;;;35.60;34.45;100842.69;5113095;27;20067;-72
2021/08/15 10:15:13;;;;;;;12.70;3.03;;;;;;;35.53;34.52;100818.50;5112798;28;20066;-73
2021/08/15 10:17:56;;;;;;;12.20;3.60;;;;;;;35.43;34.65;100841.44;5112391;28;20126;-72
2021/08/15 10:20:28;;;;;;;11.55;3.20;;;;;;;35.58;34.51;100835.44;5112408;28;20047;-72
2021/08/15 10:23:06;;;;;;;11.68;3.22;;;;;;;35.58;34.47;100847.47;5112363;28;20036;-74
2021/08/15 10:25:37;;;;;;;10.85;3.80;;;;;;;35.57;34.75;100832.88;5112251;27;20032;-71
2021/08/15 10:28:05;;;;;;;9.40;3.30;;;;;;;35.39;35.05;100834.44;5112267;28;20036;-72
2021/08/15 10:30:54;;;;;;;10.43;3.28;;;;;;;35.42;34.47;100839.69;5112319;28;20035;-71
2021/08/15 10:33:52;;;;;;;13.32;3.60;;;;;;;35.06;35.30;100843.69;5109508;28;20040;-71
2021/08/15 10:36:31;;;;;;;9.07;3.22;;;;;;;35.10;35.09;100839.69;5110952;28;20039;-72
2021/08/15 10:39:00;;;;;;;11.23;3.28;;;;;;;35.21;35.06;100845.16;5111661;28;20043;-71
2021/08/15 10:41:52;;;;;;;13.68;3.13;;;;;;;35.31;34.72;100840.63;5111868;28;20038;-71
2021/08/15 10:44:21;;;;;;;13.00;3.40;;;;;;;35.23;35.33;100839.53;5091547;28;20047;-72
2021/08/15 10:47:18;;;;;;;13.50;4.00;;;;;;;35.18;35.29;100832.53;5111971;28;20076;-70
2021/08/15 10:49:53;;;;;;;12.07;3.97;;;;;;;35.23;35.31;100834.94;5028816;28;20413;-71
2021/08/15 10:52:41;;;;;;;11.38;3.97;;;;;;;35.16;35.70;100815.34;5096843;28;20035;-72
2021/08/15 10:55:11;;;;;;;10.52;3.45;;;;;;;35.12;35.52;100822.06;5111808;28;20050;-72
2021/08/15 10:57:59;;;;;;;9.93;2.90;;;;;;;35.16;35.26;100836.44;5111505;28;20043;-70
2021/08/15 11:00:47;;;;;;;10.10;3.42;;;;;;;35.28;34.81;100827.16;5110924;28;20047;-71
2021/08/15 11:03:32;;;;;;;12.77;3.72;;;;;;;35.16;34.99;100833.69;5111824;28;20042;-70
2021/08/15 11:06:02;;;;;;;12.52;3.70;;;;;;;35.29;34.60;100826.16;5110651;28;20050;-71
2021/08/15 11:09:07;;;;;;;9.68;3.40;;;;;;;35.41;34.79;100824.22;5111048;28;20536;-71
2021/08/15 11:11:36;;;;;;;12.63;3.45;;;;;;;35.37;34.73;100831.00;5111182;28;20043;-70
2021/08/15 11:14:26;;;;;;;11.27;3.63;;;;;;;35.25;35.16;100821.91;5111219;28;20047;-70
2021/08/15 11:17:15;;;;;;;10.52;3.35;;;;;;;35.42;34.98;100828.69;5110585;28;20047;-71
2021/08/15 11:19:43;;;;;;;10.43;3.20;;;;;;;35.53;35.21;100831.38;5111566;28;20055;-72
2021/08/15 11:22:17;;;;;;;13.52;4.00;;;;;;;35.40;35.02;100827.97;5111148;28;20040;-71
2021/08/15 11:25:02;;;;;;;13.82;3.35;;;;;;;35.43;35.01;100825.81;5111683;28;20403;-70
2021/08/15 11:27:37;;;;;;;12.45;3.65;;;;;;;35.49;34.71;100830.78;5110987;28;20036;-70
2021/08/15 11:30:17;;;;;;;9.40;3.75;;;;;;;35.64;34.37;100828.56;5109183;28;20114;-70
2021/08/15 11:32:52;;;;;;;11.57;3.17;;;;;;;35.76;34.08;100832.13;5111672;28;20047;-71